This is the latest recevied weather packets stored in our database for station/object 9W2CEW-1. If no packets are shown the sender has not sent any weather packets the latest 10 day(s).
| Time | Temp. | Humidity | Pressure | Rain* | Wind** | Luminosity | Snow |
|---|---|---|---|---|---|---|---|
| 1787591301 | 36.67° C | 39% | 1006.1 hPa | - | - | - | - |
| 1787591202 | 36.67° C | 35% | 1002.8 hPa | - | - | - | - |
| 1787590401 | 37.22° C | 39% | 1006.2 hPa | - | - | - | - |
| 1787589687 | 36.67° C | 35% | 1002.7 hPa | - | - | - | - |
| 1787589501 | 36.67° C | 40% | 1006.4 hPa | - | - | - | - |
| 1787588601 | 37.22° C | 40% | 1006.6 hPa | - | - | - | - |
| 1787588403 | 36.67° C | 34% | 1002.8 hPa | - | - | - | - |
| 1787587702 | 37.22° C | 39% | 1006.8 hPa | - | - | - | - |
| 1787586801 | 37.78° C | 38% | 1006.8 hPa | - | - | - | - |
| 1787585900 | 37.78° C | 38% | 1007 hPa | - | - | - | - |
| 1787585618 | 38.33° C | 32% | 1002.7 hPa | - | - | - | - |
| 1787585000 | 38.89° C | 37% | 1006.9 hPa | - | - | - | - |
| 1787584100 | 37.78° C | 38% | 1006.8 hPa | - | - | - | - |
| 1787583767 | 38.89° C | 33% | 1003 hPa | - | - | - | - |
| 1787583254 | 38.33° C | 37% | 1006.6 hPa | - | - | - | - |
| 1787583200 | 38.33° C | 37% | 1006.6 hPa | - | - | - | - |
| 1787582428 | 36.67° C | 36% | 1003 hPa | - | - | - | - |
| 1787582300 | 38.33° C | 37% | 1006.3 hPa | - | - | - | - |
| 1787581770 | 36.67° C | 37% | 1003.2 hPa | - | - | - | - |
| 1787581400 | 38.33° C | 37% | 1006.1 hPa | - | - | - | - |
| 1787580504 | 36.67° C | 40% | 1005.9 hPa | - | - | - | - |
| 1787579604 | 36.67° C | 40% | 1005.7 hPa | - | - | - | - |
| 1787578703 | 36.67° C | 39% | 1005.7 hPa | - | - | - | - |
| 1787577803 | 35.56° C | 40% | 1005.1 hPa | - | - | - | - |
| 1787577527 | 37.22° C | 38% | 1003.3 hPa | - | - | - | - |
* Rain since midnight (hover to see other rain measurements)
** Current wind speed in m/s (hover to see current wind gust speed)